sensor_id;sensor_type;location;lat;lon;timestamp;P1;durP1;ratioP1;P2;durP2;ratioP2
80225;SDS011;69538;42.000;21.452;2023-05-07T00:00:12;11.82;;;6.78;;
80225;SDS011;69538;42.000;21.452;2023-05-07T00:02:40;12.07;;;7.40;;
80225;SDS011;69538;42.000;21.452;2023-05-07T00:05:07;12.93;;;6.75;;
80225;SDS011;69538;42.000;21.452;2023-05-07T00:07:34;12.98;;;6.32;;
80225;SDS011;69538;42.000;21.452;2023-05-07T00:10:00;10.80;;;6.25;;
80225;SDS011;69538;42.000;21.452;2023-05-07T00:12:26;11.70;;;6.80;;
80225;SDS011;69538;42.000;21.452;2023-05-07T00:14:56;11.27;;;6.68;;
80225;SDS011;69538;42.000;21.452;2023-05-07T00:17:22;18.50;;;6.72;;
80225;SDS011;69538;42.000;21.452;2023-05-07T00:19:49;10.07;;;5.93;;
80225;SDS011;69538;42.000;21.452;2023-05-07T00:22:15;10.50;;;6.07;;
80225;SDS011;69538;42.000;21.452;2023-05-07T00:24:41;9.95;;;5.97;;
80225;SDS011;69538;42.000;21.452;2023-05-07T00:27:07;9.40;;;6.28;;
80225;SDS011;69538;42.000;21.452;2023-05-07T00:29:33;10.00;;;5.80;;
80225;SDS011;69538;42.000;21.452;2023-05-07T00:31:59;11.15;;;6.22;;
80225;SDS011;69538;42.000;21.452;2023-05-07T00:34:25;12.93;;;6.18;;
80225;SDS011;69538;42.000;21.452;2023-05-07T00:36:52;13.05;;;6.47;;
80225;SDS011;69538;42.000;21.452;2023-05-07T00:39:18;12.05;;;6.78;;
80225;SDS011;69538;42.000;21.452;2023-05-07T00:41:44;13.27;;;6.43;;
80225;SDS011;69538;42.000;21.452;2023-05-07T00:44:11;13.75;;;6.53;;
80225;SDS011;69538;42.000;21.452;2023-05-07T00:46:37;9.57;;;5.40;;
80225;SDS011;69538;42.000;21.452;2023-05-07T00:49:03;9.18;;;6.05;;
80225;SDS011;69538;42.000;21.452;2023-05-07T00:51:30;11.13;;;6.75;;
80225;SDS011;69538;42.000;21.452;2023-05-07T00:53:56;12.68;;;6.60;;
80225;SDS011;69538;42.000;21.452;2023-05-07T00:56:22;10.80;;;6.20;;
80225;SDS011;69538;42.000;21.452;2023-05-07T00:58:49;11.85;;;6.43;;
80225;SDS011;69538;42.000;21.452;2023-05-07T01:01:15;10.45;;;6.35;;
80225;SDS011;69538;42.000;21.452;2023-05-07T01:03:42;15.50;;;6.63;;
80225;SDS011;69538;42.000;21.452;2023-05-07T01:06:08;12.68;;;6.35;;
80225;SDS011;69538;42.000;21.452;2023-05-07T01:08:37;12.73;;;6.60;;
80225;SDS011;69538;42.000;21.452;2023-05-07T01:11:05;11.52;;;6.28;;
80225;SDS011;69538;42.000;21.452;2023-05-07T01:13:31;11.75;;;6.38;;
80225;SDS011;69538;42.000;21.452;2023-05-07T01:15:58;12.68;;;5.85;;
80225;SDS011;69538;42.000;21.452;2023-05-07T01:18:25;13.50;;;6.75;;
80225;SDS011;69538;42.000;21.452;2023-05-07T01:20:51;15.65;;;6.93;;
80225;SDS011;69538;42.000;21.452;2023-05-07T01:23:18;13.07;;;6.85;;
80225;SDS011;69538;42.000;21.452;2023-05-07T01:25:50;15.25;;;8.00;;
80225;SDS011;69538;42.000;21.452;2023-05-07T01:28:17;16.85;;;8.10;;
80225;SDS011;69538;42.000;21.452;2023-05-07T01:30:44;14.77;;;8.20;;
80225;SDS011;69538;42.000;21.452;2023-05-07T01:33:12;16.67;;;8.05;;
80225;SDS011;69538;42.000;21.452;2023-05-07T01:35:40;18.33;;;8.75;;
80225;SDS011;69538;42.000;21.452;2023-05-07T01:38:07;14.25;;;8.00;;
80225;SDS011;69538;42.000;21.452;2023-05-07T01:40:34;17.33;;;9.20;;
80225;SDS011;69538;42.000;21.452;2023-05-07T01:43:02;16.75;;;9.30;;
80225;SDS011;69538;42.000;21.452;2023-05-07T01:45:28;16.55;;;8.38;;
80225;SDS011;69538;42.000;21.452;2023-05-07T01:47:56;17.38;;;9.40;;
80225;SDS011;69538;42.000;21.452;2023-05-07T01:50:23;16.23;;;9.25;;
80225;SDS011;69538;42.000;21.452;2023-05-07T01:52:50;17.30;;;10.07;;
80225;SDS011;69538;42.000;21.452;2023-05-07T01:55:16;19.35;;;10.25;;
80225;SDS011;69538;42.000;21.452;2023-05-07T01:57:42;18.00;;;10.75;;
80225;SDS011;69538;42.000;21.452;2023-05-07T02:00:08;20.13;;;10.00;;
80225;SDS011;69538;42.000;21.452;2023-05-07T02:02:35;21.38;;;9.48;;
80225;SDS011;69538;42.000;21.452;2023-05-07T02:05:01;20.55;;;10.43;;
80225;SDS011;69538;42.000;21.452;2023-05-07T02:07:27;17.83;;;10.02;;
80225;SDS011;69538;42.000;21.452;2023-05-07T02:09:54;23.55;;;9.80;;
80225;SDS011;69538;42.000;21.452;2023-05-07T02:12:22;22.00;;;9.65;;
80225;SDS011;69538;42.000;21.452;2023-05-07T02:14:49;20.42;;;9.63;;
80225;SDS011;69538;42.000;21.452;2023-05-07T02:17:15;17.70;;;9.43;;
80225;SDS011;69538;42.000;21.452;2023-05-07T02:19:41;17.40;;;8.95;;
80225;SDS011;69538;42.000;21.452;2023-05-07T02:22:09;15.63;;;8.88;;
80225;SDS011;69538;42.000;21.452;2023-05-07T02:24:35;16.83;;;8.93;;
80225;SDS011;69538;42.000;21.452;2023-05-07T02:27:01;15.70;;;8.73;;
80225;SDS011;69538;42.000;21.452;2023-05-07T02:29:28;20.13;;;9.32;;
80225;SDS011;69538;42.000;21.452;2023-05-07T02:31:54;19.15;;;9.20;;
80225;SDS011;69538;42.000;21.452;2023-05-07T02:34:20;13.85;;;8.65;;
80225;SDS011;69538;42.000;21.452;2023-05-07T02:36:47;18.27;;;8.70;;
80225;SDS011;69538;42.000;21.452;2023-05-07T02:39:13;19.30;;;8.93;;
80225;SDS011;69538;42.000;21.452;2023-05-07T02:41:40;22.67;;;9.18;;
80225;SDS011;69538;42.000;21.452;2023-05-07T02:44:06;18.10;;;9.65;;
80225;SDS011;69538;42.000;21.452;2023-05-07T02:46:32;14.57;;;9.35;;
80225;SDS011;69538;42.000;21.452;2023-05-07T02:48:59;19.38;;;9.15;;
80225;SDS011;69538;42.000;21.452;2023-05-07T02:51:25;13.77;;;8.27;;
80225;SDS011;69538;42.000;21.452;2023-05-07T02:53:52;15.30;;;8.80;;
80225;SDS011;69538;42.000;21.452;2023-05-07T02:56:18;14.48;;;8.68;;
80225;SDS011;69538;42.000;21.452;2023-05-07T02:58:44;15.48;;;8.07;;
80225;SDS011;69538;42.000;21.452;2023-05-07T03:01:10;15.63;;;8.85;;
80225;SDS011;69538;42.000;21.452;2023-05-07T03:03:39;15.50;;;8.98;;
80225;SDS011;69538;42.000;21.452;2023-05-07T03:06:05;15.80;;;8.70;;
80225;SDS011;69538;42.000;21.452;2023-05-07T03:08:32;18.00;;;10.43;;
80225;SDS011;69538;42.000;21.452;2023-05-07T03:10:58;16.75;;;9.48;;
80225;SDS011;69538;42.000;21.452;2023-05-07T03:13:24;15.68;;;8.07;;
80225;SDS011;69538;42.000;21.452;2023-05-07T03:15:51;16.73;;;8.80;;
80225;SDS011;69538;42.000;21.452;2023-05-07T03:18:17;15.05;;;9.13;;
80225;SDS011;69538;42.000;21.452;2023-05-07T03:20:43;14.50;;;8.63;;
80225;SDS011;69538;42.000;21.452;2023-05-07T03:23:09;21.48;;;9.13;;
80225;SDS011;69538;42.000;21.452;2023-05-07T03:25:36;14.70;;;8.30;;
80225;SDS011;69538;42.000;21.452;2023-05-07T03:28:02;14.55;;;8.77;;
80225;SDS011;69538;42.000;21.452;2023-05-07T03:30:28;16.80;;;9.38;;
80225;SDS011;69538;42.000;21.452;2023-05-07T03:32:54;13.68;;;8.07;;
80225;SDS011;69538;42.000;21.452;2023-05-07T03:35:20;15.32;;;8.00;;
80225;SDS011;69538;42.000;21.452;2023-05-07T03:37:47;14.43;;;7.85;;
80225;SDS011;69538;42.000;21.452;2023-05-07T03:40:13;17.42;;;8.73;;
80225;SDS011;69538;42.000;21.452;2023-05-07T03:42:39;15.70;;;8.20;;
80225;SDS011;69538;42.000;21.452;2023-05-07T03:45:06;14.77;;;8.23;;
80225;SDS011;69538;42.000;21.452;2023-05-07T03:47:32;15.00;;;8.45;;
80225;SDS011;69538;42.000;21.452;2023-05-07T03:49:58;15.63;;;8.32;;
80225;SDS011;69538;42.000;21.452;2023-05-07T03:52:24;13.23;;;7.90;;
80225;SDS011;69538;42.000;21.452;2023-05-07T03:54:51;15.85;;;8.73;;
80225;SDS011;69538;42.000;21.452;2023-05-07T03:57:18;14.90;;;8.00;;
80225;SDS011;69538;42.000;21.452;2023-05-07T03:59:44;13.68;;;8.13;;
80225;SDS011;69538;42.000;21.452;2023-05-07T04:02:10;15.98;;;8.52;;
80225;SDS011;69538;42.000;21.452;2023-05-07T04:04:36;14.10;;;8.15;;
80225;SDS011;69538;42.000;21.452;2023-05-07T04:07:03;14.95;;;7.60;;
80225;SDS011;69538;42.000;21.452;2023-05-07T04:09:29;15.25;;;8.38;;
80225;SDS011;69538;42.000;21.452;2023-05-07T04:11:55;15.90;;;8.93;;
80225;SDS011;69538;42.000;21.452;2023-05-07T04:14:22;11.88;;;7.45;;
80225;SDS011;69538;42.000;21.452;2023-05-07T04:16:48;16.05;;;7.80;;
80225;SDS011;69538;42.000;21.452;2023-05-07T04:19:14;14.88;;;8.23;;
80225;SDS011;69538;42.000;21.452;2023-05-07T04:21:40;18.67;;;8.00;;
80225;SDS011;69538;42.000;21.452;2023-05-07T04:24:06;15.63;;;7.93;;
80225;SDS011;69538;42.000;21.452;2023-05-07T04:26:33;14.20;;;8.00;;
80225;SDS011;69538;42.000;21.452;2023-05-07T04:28:59;14.43;;;7.43;;
80225;SDS011;69538;42.000;21.452;2023-05-07T04:31:25;15.77;;;7.93;;
80225;SDS011;69538;42.000;21.452;2023-05-07T04:33:51;14.15;;;7.72;;
80225;SDS011;69538;42.000;21.452;2023-05-07T04:36:18;14.98;;;8.02;;
80225;SDS011;69538;42.000;21.452;2023-05-07T04:38:44;13.18;;;7.45;;
80225;SDS011;69538;42.000;21.452;2023-05-07T04:41:12;13.15;;;8.10;;
80225;SDS011;69538;42.000;21.452;2023-05-07T04:43:39;21.27;;;9.80;;
80225;SDS011;69538;42.000;21.452;2023-05-07T04:46:06;14.18;;;7.85;;
80225;SDS011;69538;42.000;21.452;2023-05-07T04:48:32;13.30;;;8.40;;
80225;SDS011;69538;42.000;21.452;2023-05-07T04:50:59;13.05;;;7.93;;
80225;SDS011;69538;42.000;21.452;2023-05-07T04:53:25;18.10;;;8.48;;
80225;SDS011;69538;42.000;21.452;2023-05-07T04:55:55;14.13;;;8.10;;
80225;SDS011;69538;42.000;21.452;2023-05-07T04:58:22;14.45;;;7.28;;
80225;SDS011;69538;42.000;21.452;2023-05-07T05:00:48;14.27;;;7.78;;
80225;SDS011;69538;42.000;21.452;2023-05-07T05:03:14;13.63;;;7.25;;
80225;SDS011;69538;42.000;21.452;2023-05-07T05:05:41;15.00;;;7.95;;
80225;SDS011;69538;42.000;21.452;2023-05-07T05:08:07;16.40;;;8.35;;
80225;SDS011;69538;42.000;21.452;2023-05-07T05:10:33;15.20;;;7.30;;
80225;SDS011;69538;42.000;21.452;2023-05-07T05:12:59;13.25;;;7.75;;
80225;SDS011;69538;42.000;21.452;2023-05-07T05:15:25;14.32;;;7.70;;
80225;SDS011;69538;42.000;21.452;2023-05-07T05:17:52;17.95;;;9.00;;
80225;SDS011;69538;42.000;21.452;2023-05-07T05:20:18;15.63;;;8.68;;
80225;SDS011;69538;42.000;21.452;2023-05-07T05:22:44;15.10;;;8.10;;
80225;SDS011;69538;42.000;21.452;2023-05-07T05:25:10;17.02;;;8.85;;
80225;SDS011;69538;42.000;21.452;2023-05-07T05:27:36;14.57;;;8.35;;
80225;SDS011;69538;42.000;21.452;2023-05-07T05:30:03;16.08;;;9.00;;
80225;SDS011;69538;42.000;21.452;2023-05-07T05:34:57;17.33;;;8.65;;
80225;SDS011;69538;42.000;21.452;2023-05-07T05:37:23;17.20;;;8.75;;
80225;SDS011;69538;42.000;21.452;2023-05-07T05:39:49;13.43;;;9.02;;
80225;SDS011;69538;42.000;21.452;2023-05-07T05:42:15;14.57;;;8.40;;
80225;SDS011;69538;42.000;21.452;2023-05-07T05:44:41;15.43;;;8.10;;
80225;SDS011;69538;42.000;21.452;2023-05-07T05:47:08;13.23;;;8.77;;
80225;SDS011;69538;42.000;21.452;2023-05-07T05:49:34;14.10;;;8.55;;
80225;SDS011;69538;42.000;21.452;2023-05-07T05:52:00;15.25;;;8.52;;
80225;SDS011;69538;42.000;21.452;2023-05-07T05:54:26;15.40;;;8.35;;
80225;SDS011;69538;42.000;21.452;2023-05-07T05:56:52;12.27;;;7.93;;
80225;SDS011;69538;42.000;21.452;2023-05-07T05:59:18;20.42;;;7.22;;
80225;SDS011;69538;42.000;21.452;2023-05-07T06:01:45;14.15;;;8.38;;
80225;SDS011;69538;42.000;21.452;2023-05-07T06:04:11;12.32;;;8.32;;
80225;SDS011;69538;42.000;21.452;2023-05-07T06:06:37;14.02;;;8.73;;
80225;SDS011;69538;42.000;21.452;2023-05-07T06:09:03;13.48;;;7.85;;
80225;SDS011;69538;42.000;21.452;2023-05-07T06:11:29;16.15;;;8.88;;
80225;SDS011;69538;42.000;21.452;2023-05-07T06:13:57;13.40;;;7.93;;
80225;SDS011;69538;42.000;21.452;2023-05-07T06:16:24;15.68;;;9.07;;
80225;SDS011;69538;42.000;21.452;2023-05-07T06:18:50;15.05;;;8.75;;
80225;SDS011;69538;42.000;21.452;2023-05-07T06:21:17;12.80;;;7.95;;
80225;SDS011;69538;42.000;21.452;2023-05-07T06:23:43;13.90;;;8.00;;
80225;SDS011;69538;42.000;21.452;2023-05-07T06:26:09;13.77;;;7.38;;
80225;SDS011;69538;42.000;21.452;2023-05-07T06:28:35;16.50;;;7.95;;
80225;SDS011;69538;42.000;21.452;2023-05-07T06:31:14;12.23;;;7.93;;
80225;SDS011;69538;42.000;21.452;2023-05-07T06:33:41;14.43;;;8.88;;
80225;SDS011;69538;42.000;21.452;2023-05-07T06:36:07;16.58;;;10.43;;
80225;SDS011;69538;42.000;21.452;2023-05-07T06:38:33;15.07;;;9.93;;
80225;SDS011;69538;42.000;21.452;2023-05-07T06:41:00;15.52;;;9.35;;
80225;SDS011;69538;42.000;21.452;2023-05-07T06:43:26;13.18;;;8.65;;
80225;SDS011;69538;42.000;21.452;2023-05-07T06:45:52;16.48;;;10.32;;
80225;SDS011;69538;42.000;21.452;2023-05-07T06:48:18;16.52;;;9.45;;
80225;SDS011;69538;42.000;21.452;2023-05-07T06:50:45;13.18;;;8.48;;
80225;SDS011;69538;42.000;21.452;2023-05-07T06:53:11;15.73;;;9.13;;
80225;SDS011;69538;42.000;21.452;2023-05-07T06:55:37;22.67;;;9.80;;
80225;SDS011;69538;42.000;21.452;2023-05-07T06:58:03;20.67;;;10.98;;
80225;SDS011;69538;42.000;21.452;2023-05-07T07:00:31;17.38;;;9.63;;
80225;SDS011;69538;42.000;21.452;2023-05-07T07:02:57;15.75;;;9.02;;
80225;SDS011;69538;42.000;21.452;2023-05-07T07:05:24;17.38;;;9.60;;
80225;SDS011;69538;42.000;21.452;2023-05-07T07:07:50;16.92;;;8.73;;
80225;SDS011;69538;42.000;21.452;2023-05-07T07:10:20;14.93;;;8.02;;
80225;SDS011;69538;42.000;21.452;2023-05-07T07:12:46;15.00;;;8.05;;
80225;SDS011;69538;42.000;21.452;2023-05-07T07:15:16;11.23;;;7.60;;
80225;SDS011;69538;42.000;21.452;2023-05-07T07:17:42;11.30;;;6.55;;
80225;SDS011;69538;42.000;21.452;2023-05-07T07:20:08;12.20;;;7.35;;
80225;SDS011;69538;42.000;21.452;2023-05-07T07:22:35;9.90;;;6.03;;
80225;SDS011;69538;42.000;21.452;2023-05-07T07:25:01;9.98;;;6.05;;
80225;SDS011;69538;42.000;21.452;2023-05-07T07:27:27;11.55;;;6.60;;
80225;SDS011;69538;42.000;21.452;2023-05-07T07:29:53;10.27;;;6.60;;
80225;SDS011;69538;42.000;21.452;2023-05-07T07:32:19;16.23;;;7.35;;
80225;SDS011;69538;42.000;21.452;2023-05-07T07:34:46;12.50;;;6.97;;
80225;SDS011;69538;42.000;21.452;2023-05-07T07:37:12;10.98;;;6.70;;
80225;SDS011;69538;42.000;21.452;2023-05-07T07:39:38;13.27;;;8.10;;
80225;SDS011;69538;42.000;21.452;2023-05-07T07:42:04;13.30;;;7.15;;
80225;SDS011;69538;42.000;21.452;2023-05-07T07:44:30;13.07;;;6.57;;
80225;SDS011;69538;42.000;21.452;2023-05-07T07:46:57;8.85;;;6.22;;
80225;SDS011;69538;42.000;21.452;2023-05-07T07:49:23;11.98;;;7.07;;
80225;SDS011;69538;42.000;21.452;2023-05-07T07:51:49;11.10;;;5.97;;
80225;SDS011;69538;42.000;21.452;2023-05-07T07:54:16;12.43;;;5.97;;
80225;SDS011;69538;42.000;21.452;2023-05-07T07:56:42;11.77;;;6.95;;
80225;SDS011;69538;42.000;21.452;2023-05-07T07:59:08;12.05;;;7.18;;
80225;SDS011;69538;42.000;21.452;2023-05-07T08:01:34;10.65;;;6.65;;
80225;SDS011;69538;42.000;21.452;2023-05-07T08:04:01;9.30;;;6.30;;
80225;SDS011;69538;42.000;21.452;2023-05-07T08:06:28;13.07;;;6.68;;
80225;SDS011;69538;42.000;21.452;2023-05-07T08:08:55;10.23;;;6.43;;
80225;SDS011;69538;42.000;21.452;2023-05-07T08:11:21;11.68;;;6.95;;
80225;SDS011;69538;42.000;21.452;2023-05-07T08:13:47;10.68;;;6.43;;
80225;SDS011;69538;42.000;21.452;2023-05-07T08:16:13;18.73;;;8.18;;
80225;SDS011;69538;42.000;21.452;2023-05-07T08:18:40;10.82;;;7.10;;
80225;SDS011;69538;42.000;21.452;2023-05-07T08:21:06;11.57;;;6.90;;
80225;SDS011;69538;42.000;21.452;2023-05-07T08:23:32;9.25;;;5.50;;
80225;SDS011;69538;42.000;21.452;2023-05-07T08:25:59;13.55;;;7.57;;
80225;SDS011;69538;42.000;21.452;2023-05-07T08:28:26;9.02;;;5.85;;
80225;SDS011;69538;42.000;21.452;2023-05-07T08:30:52;10.52;;;6.93;;
80225;SDS011;69538;42.000;21.452;2023-05-07T08:33:18;7.40;;;3.90;;
80225;SDS011;69538;42.000;21.452;2023-05-07T08:35:45;13.20;;;7.18;;
80225;SDS011;69538;42.000;21.452;2023-05-07T08:38:11;11.32;;;6.45;;
80225;SDS011;69538;42.000;21.452;2023-05-07T08:40:38;13.23;;;7.38;;
80225;SDS011;69538;42.000;21.452;2023-05-07T08:43:06;9.93;;;5.32;;
80225;SDS011;69538;42.000;21.452;2023-05-07T08:45:32;7.13;;;4.75;;
80225;SDS011;69538;42.000;21.452;2023-05-07T08:47:59;9.80;;;5.55;;
80225;SDS011;69538;42.000;21.452;2023-05-07T08:50:28;11.20;;;5.43;;
80225;SDS011;69538;42.000;21.452;2023-05-07T08:52:54;8.60;;;5.40;;
80225;SDS011;69538;42.000;21.452;2023-05-07T08:55:21;9.70;;;6.00;;
80225;SDS011;69538;42.000;21.452;2023-05-07T08:57:48;10.43;;;5.47;;
80225;SDS011;69538;42.000;21.452;2023-05-07T09:00:15;7.60;;;5.13;;
80225;SDS011;69538;42.000;21.452;2023-05-07T09:02:41;6.53;;;4.40;;
80225;SDS011;69538;42.000;21.452;2023-05-07T09:05:07;7.78;;;4.82;;
80225;SDS011;69538;42.000;21.452;2023-05-07T09:07:33;6.95;;;5.07;;
80225;SDS011;69538;42.000;21.452;2023-05-07T09:10:03;8.93;;;5.28;;
80225;SDS011;69538;42.000;21.452;2023-05-07T09:12:29;9.43;;;4.68;;
80225;SDS011;69538;42.000;21.452;2023-05-07T09:14:56;8.88;;;4.35;;
80225;SDS011;69538;42.000;21.452;2023-05-07T09:17:22;9.77;;;5.03;;
80225;SDS011;69538;42.000;21.452;2023-05-07T09:19:48;9.07;;;5.18;;
80225;SDS011;69538;42.000;21.452;2023-05-07T09:22:15;7.30;;;4.50;;
80225;SDS011;69538;42.000;21.452;2023-05-07T09:24:41;8.27;;;5.10;;
80225;SDS011;69538;42.000;21.452;2023-05-07T09:27:12;8.90;;;4.70;;
80225;SDS011;69538;42.000;21.452;2023-05-07T09:29:39;8.13;;;4.55;;
80225;SDS011;69538;42.000;21.452;2023-05-07T09:32:05;7.43;;;4.75;;
80225;SDS011;69538;42.000;21.452;2023-05-07T09:34:32;8.43;;;5.20;;
80225;SDS011;69538;42.000;21.452;2023-05-07T09:37:04;9.23;;;5.22;;
80225;SDS011;69538;42.000;21.452;2023-05-07T09:42:09;6.95;;;4.93;;
80225;SDS011;69538;42.000;21.452;2023-05-07T09:44:36;7.25;;;5.15;;
80225;SDS011;69538;42.000;21.452;2023-05-07T09:47:04;7.82;;;5.05;;
80225;SDS011;69538;42.000;21.452;2023-05-07T09:49:30;8.18;;;4.72;;
80225;SDS011;69538;42.000;21.452;2023-05-07T09:51:59;7.35;;;4.28;;
80225;SDS011;69538;42.000;21.452;2023-05-07T09:54:26;8.88;;;4.70;;
80225;SDS011;69538;42.000;21.452;2023-05-07T09:56:55;10.52;;;4.78;;
80225;SDS011;69538;42.000;21.452;2023-05-07T09:59:22;10.45;;;4.75;;
80225;SDS011;69538;42.000;21.452;2023-05-07T10:01:48;7.85;;;4.95;;
80225;SDS011;69538;42.000;21.452;2023-05-07T10:04:15;6.97;;;4.00;;
80225;SDS011;69538;42.000;21.452;2023-05-07T10:06:42;6.25;;;3.75;;
80225;SDS011;69538;42.000;21.452;2023-05-07T10:09:08;6.65;;;3.70;;
